Flight Track Log - Related Links

Times and Time Zones

All times are in EST time to prevent confusion due to time zone crossing. See the UPS219 flight status page for this flight to view local times or setup timezone preferences in your user account.

Time Position Orientation Groundspeed Altitude Reporting Facility
EST Latitude Longitude Course Direction KTS MPH feet Rate Location/Type
Wed 03:47:28 AM 38.1483 -85.7183 163° South 154 177 2,100  Level FAA TRACON SMA TRACON (SMA)
Wed 03:47:48 AM 38.1344 -85.7131 163° South 165 190 2,500 1,050 Climbing FAA TRACON SMA TRACON (SMA)
Wed 03:48:08 AM 38.1183 -85.7069 164° South 188 216 2,800 1,800 Climbing FAA TRACON SMA TRACON (SMA)
Wed 03:48:28 AM 38.0956 -85.6986 165° South 218 251 3,700 2,100 Climbing FAA TRACON SMA TRACON (SMA)
Wed 03:48:48 AM 38.0756 -85.6917 150° Southeast 235 270 4,200 1,950 Climbing FAA TRACON SMA TRACON (SMA)
Wed 03:49:08 AM 38.0567 -85.6778 119° Southeast 256 295 5,000 2,850 Climbing FAA TRACON SMA TRACON (SMA)
Wed 03:49:28 AM 38.0428 -85.6461 98° East 273 314 6,100 2,700 Climbing FAA TRACON SMA TRACON (SMA)
Wed 03:49:48 AM 38.0394 -85.6164 94° East 278 320 6,800 2,250 Climbing FAA TRACON SMA TRACON (SMA)
Wed 03:50:08 AM 38.0378 -85.5853 94° East 285 328 7,600 2,550 Climbing FAA TRACON SMA TRACON (SMA)
Wed 03:50:28 AM 38.0353 -85.5444 96° East 299 344 8,500 2,550 Climbing FAA TRACON SMA TRACON (SMA)
Wed 03:50:48 AM 38.0325 -85.5114 95° East 306 352 9,300 2,400 Climbing FAA TRACON SMA TRACON (SMA)
Wed 03:51:08 AM 38.0300 -85.4775 94° East 313 360 10,100 1,953 Climbing FAA TRACON SMA TRACON (SMA)
Wed 03:51:31 AM 38.0278 -85.4333 93° East 321 369 10,700 1,395 Climbing FAA TRACON SMA TRACON (SMA)
Wed 03:51:51 AM 38.0256 -85.3853 89° East 347 399 11,100 1,297 Climbing FAA TRACON SMA TRACON (SMA)
Wed 03:52:08 AM 38.0261 -85.3547 76° East 364 419 11,500 1,784 Climbing FAA TRACON SMA TRACON (SMA)
Wed 03:52:28 AM 38.0364 -85.3031 65° Northeast 391 450 12,200 2,850 Climbing FAA TRACON SMA TRACON (SMA)
Wed 03:52:48 AM 38.0508 -85.2636 63° Northeast 401 461 13,400 3,150 Climbing FAA TRACON SMA TRACON (SMA)
Wed 03:53:08 AM 38.0664 -85.2242 63° Northeast 404 465 14,300 3,150 Climbing FAA TRACON SMA TRACON (SMA)
Wed 03:53:28 AM 38.0867 -85.1736 63° Northeast 414 476 15,500 3,300 Climbing FAA TRACON SMA TRACON (SMA)
Wed 03:53:48 AM 38.1033 -85.1328 64° Northeast 420 483 16,500 2,700 Climbing FAA TRACON SMA TRACON (SMA)
Wed 03:54:08 AM 38.1194 -85.0903 63° Northeast 429 494 17,300 2,700 Climbing FAA TRACON SMA TRACON (SMA)
Wed 03:54:28 AM 38.1411 -85.0364 63° Northeast 441 507 18,300 2,550 Climbing FAA TRACON SMA TRACON (SMA)
Wed 03:54:48 AM 38.1586 -84.9925 64° Northeast 450 518 19,000 2,400 Climbing FAA TRACON SMA TRACON (SMA)
Wed 03:55:08 AM 38.1758 -84.9475 74° East 457 526 19,900 2,357 Climbing FAA TRACON SMA TRACON (SMA)
Wed 03:55:16 AM 38.1767 -84.9439 64° Northeast 436 502 20,100 2,294 Climbing Indianapolis Center
Wed 03:56:16 AM 38.2344 -84.7944 64° Northeast 458 527 22,500 2,300 Climbing Indianapolis Center
Wed 03:57:16 AM 38.2967 -84.6339 63° Northeast 483 556 24,700 2,100 Climbing Indianapolis Center
Wed 03:58:16 AM 38.3628 -84.4656 65° Northeast 510 587 26,700 2,100 Climbing Indianapolis Center
Wed 03:59:16 AM 38.4264 -84.2939 64° Northeast 528 608 28,900 2,300 Climbing Indianapolis Center
Wed 04:00:16 AM 38.4964 -84.1089 64° Northeast 528 608 31,300 2,150 Climbing Indianapolis Center
Wed 04:01:16 AM 38.5617 -83.9342 63° Northeast 528 608 33,200 1,650 Climbing Indianapolis Center
Wed 04:02:16 AM 38.6308 -83.7617 66° East 528 608 34,600 850 Climbing Indianapolis Center
Wed 04:03:16 AM 38.6917 -83.5889 65° Northeast 534 615 34,900 200 Climbing Indianapolis Center
Wed 04:04:16 AM 38.7519 -83.4239 65° Northeast 520 598 35,000 50 Climbing Indianapolis Center
Wed 04:05:16 AM 38.8142 -83.2506 63° Northeast 520 598 35,000  Level Indianapolis Center
Wed 04:06:16 AM 38.8742 -83.1008 65° Northeast 520 598 35,000  Level Indianapolis Center
Wed 04:07:16 AM 38.9381 -82.9217 65° Northeast 525 604 35,000  Level Indianapolis Center
Wed 04:08:16 AM 39.0017 -82.7475 64° Northeast 530 610 35,000  Level Indianapolis Center
Wed 04:09:16 AM 39.0669 -82.5728 65° Northeast 530 610 35,000  Level Indianapolis Center
Wed 04:10:16 AM 39.1300 -82.3953 66° East 530 610 35,000  Level Indianapolis Center
Wed 04:11:16 AM 39.1886 -82.2228 66° East 530 610 35,000  Level Indianapolis Center
Wed 04:13:17 AM 39.3139 -81.8519 66° East 525 604 35,000  Level Cleveland Center
Wed 04:14:17 AM 39.3719 -81.6839 65° Northeast 517 595 35,000  Level Cleveland Center
Wed 04:15:17 AM 39.4275 -81.5289 65° Northeast 517 595 35,000  Level Cleveland Center
Wed 04:16:17 AM 39.4892 -81.3578 66° East 517 595 35,000  Level Cleveland Center
Wed 04:17:17 AM 39.5486 -81.1861 66° East 522 601 35,000  Level Cleveland Center
Wed 04:18:17 AM 39.6056 -81.0169 66° East 517 595 35,000  Level Cleveland Center
Wed 04:19:17 AM 39.6644 -80.8472 70° East 512 589 35,000  Level Cleveland Center
Wed 04:20:17 AM 39.7128 -80.6747 82° East 512 589 35,000  Level Cleveland Center
Wed 04:21:17 AM 39.7336 -80.4886 83° East 512 589 35,000  Level Cleveland Center
Wed 04:22:17 AM 39.7519 -80.2969 83° East 518 596 35,000  Level Cleveland Center
Wed 04:23:17 AM 39.7703 -80.1106 83° East 524 603 35,000  Level Cleveland Center
Wed 04:24:17 AM 39.7881 -79.9239 84° East 519 597 35,000  Level Cleveland Center
Wed 04:25:17 AM 39.8033 -79.7347 84° East 524 603 35,000  Level Cleveland Center
Wed 04:26:17 AM 39.8186 -79.5425 83° East 524 603 35,000  Level Cleveland Center
Wed 04:27:17 AM 39.8356 -79.3558 83° East 524 603 35,000  Level Cleveland Center
Wed 04:28:17 AM 39.8519 -79.1689 85° East 524 603 35,000  Level Cleveland Center
Wed 04:29:17 AM 39.8658 -78.9575 84° East 529 609 35,000  Level Cleveland Center
Wed 04:30:17 AM 39.8817 -78.7678 85° East 529 609 35,000  Level Cleveland Center
Wed 04:31:17 AM 39.8953 -78.5806 84° East 529 609 35,000  Level Cleveland Center
Wed 04:32:17 AM 39.9106 -78.3881 84° East 529 609 35,000  Level Cleveland Center
Wed 04:33:17 AM 39.9239 -78.2197 84° East 524 603 35,000 -628 Level Cleveland Center
Wed 04:35:28 AM 39.9531 -77.8178 84° East 516 594 33,000 -1,358 Descending New York Center
Wed 04:36:27 AM 39.9683 -77.6294 86° East 516 594 30,700 -2,205 Descending New York Center
Wed 04:37:25 AM 39.9789 -77.4464 85° East 516 594 28,700 -1,916 Descending New York Center
Wed 04:43:36 AM 40.0454 -76.4049 86° East 411 473 17,000 -1,881 Descending FlightAware ADS-B
Wed 04:44:07 AM 40.0501 -76.3264 86° East 404 465 16,100 -1,770 Descending FlightAware ADS-B
Wed 04:44:37 AM 40.0543 -76.2538 86° East 401 461 15,200 -1,869 Descending FlightAware ADS-B
Wed 04:45:08 AM 40.0588 -76.1769 86° East 398 458 14,200 -1,810 Descending FlightAware ADS-B
Wed 04:45:40 AM 40.0631 -76.1006 86° East 395 455 13,300 -1,714 Descending FlightAware ADS-B
Wed 04:46:11 AM 40.0671 -76.0273 86° East 391 450 12,400 -1,770 Descending FlightAware ADS-B
Wed 04:46:41 AM 40.0710 -75.9571 86° East 387 445 11,500 -1,770 Descending FlightAware ADS-B
Wed 04:47:12 AM 40.0748 -75.8875 86° East 384 442 10,600 -1,279 Descending FlightAware ADS-B
Wed 04:47:42 AM 40.0785 -75.8171 86° East 368 423 10,200 -735 Descending FlightAware ADS-B
Wed 04:48:01 AM 40.0805 -75.7780 86° East 352 405 10,000 -353 Descending FlightAware ADS-B
Wed 04:48:16 AM 40.0824 -75.7452 86° East 330 380 10,000  Level FlightAware ADS-B
Wed 04:48:41 AM 40.0849 -75.6981 86° East 304 350 10,000 -146 Level FlightAware ADS-B
Wed 04:48:57 AM 40.0865 -75.6710 85° East 297 342 9,900 -194 Descending FlightAware ADS-B
Wed 04:49:12 AM 40.0883 -75.6444 86° East 295 339 9,900  Level FlightAware ADS-B
Wed 04:49:27 AM 40.0900 -75.6159 85° East 294 338 9,900 -387 Level FlightAware ADS-B
Wed 04:49:43 AM 40.0919 -75.5878 85° East 290 334 9,700 -933 Descending FlightAware ADS-B
Wed 04:50:12 AM 40.0952 -75.5392 85° East 286 329 9,200 -1,119 Descending FlightAware ADS-B
Wed 04:50:42 AM 40.0985 -75.4879 85° East 283 326 8,600 -1,179 Descending FlightAware ADS-B
Wed 04:51:08 AM 40.1013 -75.4437 86° East 280 322 8,100 -1,418 Descending FlightAware ADS-B
Wed 04:51:37 AM 40.1038 -75.3951 87° East 278 320 7,300 -1,773 Descending FlightAware ADS-B
Wed 04:51:52 AM 40.1048 -75.3680 88° East 280 322 6,800 -1,756 Descending FlightAware ADS-B
Wed 04:52:18 AM 40.1061 -75.3259 88° East 278 320 6,100 -1,714 Descending FlightAware ADS-B
Wed 04:52:34 AM 40.1067 -75.2990 88° East 277 319 5,600 -1,875 Descending FlightAware ADS-B
Wed 04:52:50 AM 40.1073 -75.2724 88° East 273 314 5,100 -1,742 Descending FlightAware ADS-B
Wed 04:53:05 AM 40.1079 -75.2459 88° East 274 315 4,700 -1,355 Descending FlightAware ADS-B
Wed 04:53:21 AM 40.1087 -75.2195 88° East 273 314 4,400 -968 Descending FlightAware ADS-B
Wed 04:53:36 AM 40.1094 -75.1948 88° East 273 314 4,200 -1,000 Descending FlightAware ADS-B
Wed 04:53:51 AM 40.1101 -75.1701 102° East 271 312 3,900 -563 Descending FlightAware ADS-B
Wed 04:54:08 AM 40.1058 -75.1439 127° Southeast 258 297 3,900  Level FlightAware ADS-B
Wed 04:54:27 AM 40.0933 -75.1220 125° Southeast 241 277 3,900  Level FlightAware ADS-B
Wed 04:54:43 AM 40.0825 -75.1022 126° Southeast 235 270 3,900  Level FlightAware ADS-B
Wed 04:55:11 AM 40.0659 -75.0726 125° Southeast 214 246 3,900 -133 Level FlightAware ADS-B
Wed 04:55:28 AM 40.0565 -75.0553 125° Southeast 202 232 3,800 -563 Descending FlightAware ADS-B
Wed 04:55:43 AM 40.0486 -75.0406 124° Southeast 196 226 3,600 -774 Descending FlightAware ADS-B
Wed 04:55:59 AM 40.0401 -75.0244 127° Southeast 192 221 3,400 -857 Descending FlightAware ADS-B
Wed 04:56:18 AM 40.0300 -75.0068 156° South 188 216 3,100 -789 Descending FlightAware ADS-B
Wed 04:56:37 AM 40.0160 -74.9987 177° South 181 208 2,900 -300 Descending FlightAware ADS-B
Wed 04:56:58 AM 39.9978 -74.9974 176° South 185 213 2,900  Level FlightAware ADS-B
Wed 04:57:14 AM 39.9845 -74.9962 176° South 182 209 2,900  Level FlightAware ADS-B
Wed 04:57:29 AM 39.9719 -74.9950 176° South 182 209 2,900  Level FlightAware ADS-B
Wed 04:57:44 AM 39.9591 -74.9937 200° South 183 211 2,900  Level FlightAware ADS-B
Wed 04:58:07 AM 39.9413 -75.0022 229° Southwest 180 207 2,900  Level FlightAware ADS-B
Wed 04:58:24 AM 39.9320 -75.0162 228° Southwest 181 208 2,900  Level FlightAware ADS-B
Wed 04:58:39 AM 39.9236 -75.0283 229° Southwest 178 205 2,900 -162 Level FlightAware ADS-B
Wed 04:59:01 AM 39.9116 -75.0461 247° West 180 207 2,800 -649 Descending FlightAware ADS-B
Wed 04:59:16 AM 39.9069 -75.0606 258° West 170 196 2,500 -909 Descending FlightAware ADS-B
Wed 04:59:34 AM 39.9040 -75.0781 255° West 164 189 2,300 -857 Descending FlightAware ADS-B
Wed 04:59:58 AM 39.8992 -75.1012 256° West 165 190 1,900 -923 Descending FlightAware ADS-B
Wed 05:00:13 AM 39.8967 -75.1147 256° West 165 190 1,700 -909 Descending FlightAware ADS-B
Wed 05:00:31 AM 39.8932 -75.1326 255° West 153 176 1,400 -882 Descending FlightAware ADS-B
Wed 05:00:47 AM 39.8903 -75.1464 256° West 147 169 1,200 -882 Descending FlightAware ADS-B
Wed 05:01:05 AM 39.8874 -75.1612 256° West 148 170 900 -857 Descending FlightAware ADS-B
Wed 05:01:22 AM 39.8844 -75.1768 255° West 149 171 700 -857 Descending FlightAware ADS-B
Wed 05:01:40 AM 39.8813 -75.1924 254° West 149 171 400 -643 Descending FlightAware ADS-B
Wed 05:01:50 AM 39.8800 -75.1983 256° West 147 169 400 -400 Level FAA TRACON SMA TRACON (SMA)
Wed 05:02:10 AM 39.8769 -75.2139 256° West 146 168 200 -600 Descending FAA TRACON SMA TRACON (SMA)

Login

Don't have an account? Register now (free) for customized features, flight alerts, and more!